createdAt,value
2017-09-25T00:01:16.132Z,12.97
2017-09-25T00:03:44.419Z,14.00
2017-09-25T00:06:12.735Z,14.37
2017-09-25T00:08:41.031Z,15.30
2017-09-25T00:11:09.403Z,13.67
2017-09-25T00:13:37.791Z,15.67
2017-09-25T00:16:06.177Z,15.43
2017-09-25T00:18:34.561Z,15.70
2017-09-25T00:21:03.194Z,17.40
2017-09-25T00:23:32.344Z,16.37
2017-09-25T00:26:00.703Z,16.50
2017-09-25T00:28:29.371Z,15.20
2017-09-25T00:30:57.743Z,15.20
2017-09-25T00:33:26.124Z,12.57
2017-09-25T00:35:54.494Z,11.90
2017-09-25T00:38:22.827Z,12.83
2017-09-25T00:40:51.270Z,11.40
2017-09-25T00:43:19.631Z,12.13
2017-09-25T00:45:48.733Z,11.03
2017-09-25T00:48:17.061Z,11.20
2017-09-25T00:50:49.215Z,10.87
2017-09-25T00:56:17.179Z,13.10
2017-09-25T00:58:45.507Z,11.70
2017-09-25T01:01:15.607Z,12.30
2017-09-25T01:03:53.829Z,13.30
2017-09-25T01:06:26.014Z,12.13
2017-09-25T01:08:54.304Z,13.70
2017-09-25T01:11:22.638Z,11.07
2017-09-25T01:13:51.698Z,10.17
2017-09-25T01:16:19.986Z,10.80
2017-09-25T01:18:48.282Z,10.33
2017-09-25T01:21:16.583Z,9.63
2017-09-25T01:23:44.899Z,8.93
2017-09-25T01:26:14.022Z,10.63
2017-09-25T01:28:42.315Z,10.10
2017-09-25T01:31:10.607Z,9.97
2017-09-25T01:33:38.907Z,10.10
2017-09-25T01:36:07.322Z,9.33
2017-09-25T01:38:35.615Z,9.63
2017-09-25T01:41:03.909Z,7.20
2017-09-25T01:43:32.212Z,8.90
2017-09-25T01:46:00.506Z,8.10
2017-09-25T01:48:28.829Z,8.10
2017-09-25T01:50:57.123Z,8.47
2017-09-25T01:53:25.438Z,7.40
2017-09-25T01:55:53.731Z,8.23
2017-09-25T01:58:22.015Z,7.67
2017-09-25T02:00:50.301Z,7.33
2017-09-25T02:03:18.612Z,7.23
2017-09-25T02:05:46.917Z,7.70
2017-09-25T02:08:15.199Z,7.27
2017-09-25T02:10:43.487Z,5.80
2017-09-25T02:13:11.807Z,7.80
2017-09-25T02:15:40.891Z,8.00
2017-09-25T02:18:09.211Z,9.97
2017-09-25T02:20:37.507Z,8.90
2017-09-25T02:23:05.806Z,9.00
2017-09-25T02:25:34.129Z,8.03
2017-09-25T02:28:02.626Z,8.07
2017-09-25T02:30:30.939Z,9.10
2017-09-25T02:32:59.232Z,8.73
2017-09-25T02:35:28.287Z,9.30
2017-09-25T02:37:56.622Z,8.43
2017-09-25T02:40:24.951Z,8.27
2017-09-25T02:42:53.245Z,9.57
2017-09-25T02:45:21.554Z,7.97
2017-09-25T02:47:49.891Z,8.83
2017-09-25T02:50:18.972Z,7.60
2017-09-25T02:52:47.258Z,8.10
2017-09-25T02:55:15.575Z,7.60
2017-09-25T02:57:44.627Z,7.70
2017-09-25T03:00:13.112Z,7.80
2017-09-25T03:02:41.401Z,7.00
2017-09-25T03:05:09.682Z,7.10
2017-09-25T03:07:37.962Z,6.33
2017-09-25T03:10:06.375Z,7.37
2017-09-25T03:12:34.674Z,7.30
2017-09-25T03:15:02.962Z,8.13
2017-09-25T03:17:31.258Z,7.00
2017-09-25T03:19:59.545Z,8.07
2017-09-25T03:22:27.893Z,8.47
2017-09-25T03:24:56.192Z,11.10
2017-09-25T03:27:24.496Z,10.73
2017-09-25T03:29:52.798Z,11.13
2017-09-25T03:32:21.090Z,10.00
2017-09-25T03:34:49.435Z,11.77
2017-09-25T03:37:18.494Z,11.23
2017-09-25T03:39:46.792Z,11.00
2017-09-25T03:42:15.088Z,12.67
2017-09-25T03:44:43.563Z,11.97
2017-09-25T03:47:11.854Z,12.57
2017-09-25T03:49:40.154Z,11.13
2017-09-25T03:52:08.457Z,12.87
2017-09-25T03:54:36.748Z,11.23
2017-09-25T03:57:05.067Z,11.30
2017-09-25T03:59:33.395Z,11.47
2017-09-25T04:02:01.702Z,12.53
2017-09-25T04:04:30.031Z,11.60
2017-09-25T04:06:58.328Z,10.63
2017-09-25T04:09:26.752Z,11.07
2017-09-25T04:11:55.071Z,11.07
2017-09-25T04:14:23.374Z,11.50
2017-09-25T04:16:51.684Z,9.90
2017-09-25T04:19:19.980Z,10.60
2017-09-25T04:21:48.278Z,10.97
2017-09-25T04:24:16.600Z,11.30
2017-09-25T04:26:44.925Z,11.27
2017-09-25T04:29:13.978Z,9.87
2017-09-25T04:31:42.326Z,9.10
2017-09-25T04:34:11.378Z,9.73
2017-09-25T04:36:39.676Z,9.50
2017-09-25T04:39:07.967Z,9.33
2017-09-25T04:41:36.252Z,8.93
2017-09-25T04:44:04.567Z,7.77
2017-09-25T04:46:32.886Z,9.90
2017-09-25T04:49:01.219Z,8.33
2017-09-25T04:51:29.545Z,7.97
2017-09-25T04:53:58.610Z,8.23
2017-09-25T04:56:26.900Z,8.53
2017-09-25T04:58:55.183Z,7.60
2017-09-25T05:01:24.366Z,7.60
2017-09-25T05:03:52.676Z,7.20
2017-09-25T05:06:20.999Z,7.60
2017-09-25T05:08:49.291Z,7.10
2017-09-25T05:11:17.599Z,7.77
2017-09-25T05:13:46.652Z,8.03
2017-09-25T05:16:15.080Z,7.60
2017-09-25T05:18:43.357Z,7.20
2017-09-25T05:21:11.658Z,8.00
2017-09-25T05:23:39.947Z,8.30
2017-09-25T05:26:08.234Z,8.97
2017-09-25T05:28:36.575Z,7.80
2017-09-25T05:31:04.872Z,8.83
2017-09-25T05:33:33.172Z,8.27
2017-09-25T05:36:01.690Z,7.97
2017-09-25T05:38:29.983Z,6.97
2017-09-25T05:40:58.458Z,8.63
2017-09-25T05:43:26.752Z,8.50
2017-09-25T05:45:55.037Z,7.60
2017-09-25T05:48:23.359Z,9.23
2017-09-25T05:50:52.418Z,8.20
2017-09-25T05:53:20.731Z,8.40
2017-09-25T05:55:49.054Z,8.87
2017-09-25T05:58:18.105Z,8.07
2017-09-25T06:00:46.443Z,8.40
2017-09-25T06:03:15.512Z,10.53
2017-09-25T06:05:43.810Z,10.90
2017-09-25T06:08:13.239Z,11.37
2017-09-25T06:10:41.559Z,11.00
2017-09-25T06:13:09.883Z,11.03
2017-09-25T06:15:38.308Z,13.83
2017-09-25T06:18:06.657Z,13.40
2017-09-25T06:20:34.964Z,12.60
2017-09-25T06:23:03.379Z,11.27
2017-09-25T06:25:31.689Z,12.47
2017-09-25T06:28:00.756Z,12.60
2017-09-25T06:30:29.052Z,12.70
2017-09-25T06:32:57.346Z,12.87
2017-09-25T06:35:25.646Z,12.40
2017-09-25T06:37:53.971Z,13.43
2017-09-25T06:40:22.298Z,16.97
2017-09-25T06:42:50.616Z,12.43
2017-09-25T06:45:18.912Z,11.80
2017-09-25T06:47:47.971Z,12.43
2017-09-25T06:50:16.275Z,10.77
2017-09-25T06:52:44.600Z,9.30
2017-09-25T06:55:13.650Z,10.97
2017-09-25T06:57:41.968Z,10.07
2017-09-25T07:00:10.268Z,10.37
2017-09-25T07:02:38.643Z,9.90
2017-09-25T07:05:07.746Z,8.50
2017-09-25T07:07:36.038Z,7.70
2017-09-25T07:10:04.347Z,8.77
2017-09-25T07:12:32.643Z,8.30
2017-09-25T07:15:00.971Z,10.23
2017-09-25T07:17:29.296Z,7.93
2017-09-25T07:19:57.591Z,11.27
2017-09-25T07:22:25.924Z,10.57
2017-09-25T07:24:54.282Z,9.73
2017-09-25T07:27:22.595Z,8.37
2017-09-25T07:29:51.699Z,8.77
2017-09-25T07:32:20.763Z,8.00
2017-09-25T07:34:49.047Z,8.07
2017-09-25T07:37:17.372Z,8.83
2017-09-25T07:39:45.663Z,8.13
2017-09-25T07:42:13.976Z,8.30
2017-09-25T07:44:43.188Z,8.70
2017-09-25T07:47:12.847Z,9.50
2017-09-25T07:49:41.237Z,8.90
2017-09-25T07:52:09.531Z,8.87
2017-09-25T07:54:37.818Z,9.67
2017-09-25T07:57:06.116Z,8.50
2017-09-25T07:59:34.418Z,8.80
2017-09-25T08:02:02.847Z,9.13
2017-09-25T08:04:31.151Z,10.00
2017-09-25T08:06:59.469Z,8.97
2017-09-25T08:09:27.763Z,9.77
2017-09-25T08:11:56.823Z,9.97
2017-09-25T08:14:25.146Z,9.67
2017-09-25T08:16:53.454Z,8.53
2017-09-25T08:19:21.919Z,6.60
2017-09-25T08:21:50.207Z,7.70
2017-09-25T08:24:18.503Z,7.70
2017-09-25T08:26:46.824Z,7.23
2017-09-25T08:29:15.110Z,7.97
2017-09-25T08:31:43.413Z,9.70
2017-09-25T08:34:11.730Z,8.87
2017-09-25T08:36:40.014Z,8.80
2017-09-25T08:39:08.303Z,9.40
2017-09-25T08:41:36.590Z,9.50
2017-09-25T08:44:04.924Z,9.80
2017-09-25T08:46:33.218Z,9.10
2017-09-25T08:49:01.831Z,9.30
2017-09-25T08:51:30.159Z,10.50
2017-09-25T08:53:58.450Z,8.90
2017-09-25T08:56:26.792Z,10.87
2017-09-25T08:58:55.099Z,10.43
2017-09-25T09:01:24.187Z,9.27
2017-09-25T09:03:52.491Z,9.30
2017-09-25T09:06:20.820Z,9.67
2017-09-25T09:08:49.114Z,10.30
2017-09-25T09:11:17.415Z,10.77
2017-09-25T09:13:45.922Z,11.10
2017-09-25T09:16:14.245Z,10.67
2017-09-25T09:18:42.550Z,12.37
2017-09-25T09:21:11.608Z,12.00
2017-09-25T09:23:39.911Z,10.83
2017-09-25T09:26:08.207Z,10.40
2017-09-25T09:28:36.510Z,10.93
2017-09-25T09:31:04.837Z,10.60
2017-09-25T09:33:33.133Z,10.60
2017-09-25T09:36:01.454Z,10.93
2017-09-25T09:38:29.756Z,10.50
2017-09-25T09:40:58.063Z,10.03
2017-09-25T09:43:27.125Z,10.13
2017-09-25T09:45:55.454Z,10.17
2017-09-25T09:48:24.512Z,9.90
2017-09-25T09:50:52.809Z,10.33
2017-09-25T09:53:21.121Z,11.00
2017-09-25T09:55:49.420Z,11.87
2017-09-25T09:58:17.743Z,11.30
2017-09-25T10:00:46.057Z,11.17
2017-09-25T10:03:14.347Z,10.27
2017-09-25T10:05:42.652Z,10.00
2017-09-25T10:08:11.715Z,11.97
2017-09-25T10:10:40.012Z,12.00
2017-09-25T10:13:08.311Z,11.33
2017-09-25T10:15:36.615Z,10.40
2017-09-25T10:18:04.952Z,10.93
2017-09-25T10:20:34.024Z,11.27
2017-09-25T10:23:02.321Z,11.90
2017-09-25T10:25:30.645Z,10.37
2017-09-25T10:27:59.722Z,11.13
2017-09-25T10:30:28.025Z,10.17
2017-09-25T10:32:56.339Z,12.20
2017-09-25T10:35:24.643Z,13.13
2017-09-25T10:37:52.971Z,13.07
2017-09-25T10:40:21.278Z,13.33
2017-09-25T10:42:49.599Z,14.30
2017-09-25T10:45:17.903Z,12.30
2017-09-25T10:47:46.230Z,12.60
2017-09-25T10:50:14.527Z,14.27
2017-09-25T10:52:42.823Z,12.80
2017-09-25T10:55:11.120Z,14.40
2017-09-25T10:57:39.418Z,12.70
2017-09-25T11:00:08.523Z,14.10
2017-09-25T11:02:36.815Z,14.07
2017-09-25T11:05:05.872Z,13.07
2017-09-25T11:07:34.200Z,13.30
2017-09-25T11:10:02.543Z,13.13
2017-09-25T11:12:30.968Z,12.70
2017-09-25T11:14:59.271Z,12.83
2017-09-25T11:17:27.571Z,12.37
2017-09-25T11:19:56.651Z,12.20
2017-09-25T11:22:24.946Z,12.50
2017-09-25T11:24:53.279Z,12.50
2017-09-25T11:27:21.626Z,12.60
2017-09-25T11:29:49.924Z,12.10
2017-09-25T11:32:18.216Z,11.70
2017-09-25T11:34:46.538Z,12.07
2017-09-25T11:37:14.844Z,11.50
2017-09-25T11:39:43.267Z,10.83
2017-09-25T11:42:11.562Z,11.27
2017-09-25T11:44:39.863Z,11.00
2017-09-25T11:47:08.159Z,12.27
2017-09-25T11:49:37.391Z,11.37
2017-09-25T11:52:05.712Z,10.90
2017-09-25T11:54:34.019Z,11.50
2017-09-25T11:57:02.322Z,12.13
2017-09-25T11:59:30.636Z,12.90
2017-09-25T12:01:59.709Z,15.10
2017-09-25T12:04:28.054Z,14.83
2017-09-25T12:06:56.367Z,15.10
2017-09-25T12:09:24.663Z,14.70
2017-09-25T12:11:52.990Z,15.40
2017-09-25T12:14:22.075Z,15.50
2017-09-25T12:16:50.375Z,16.90
2017-09-25T12:19:18.679Z,17.03
2017-09-25T12:21:47.738Z,17.40
2017-09-25T12:24:16.076Z,17.57
2017-09-25T12:26:45.141Z,16.77
2017-09-25T12:29:13.438Z,18.93
2017-09-25T12:31:41.746Z,18.30
2017-09-25T12:34:10.045Z,19.17
2017-09-25T12:36:38.463Z,17.10
2017-09-25T12:39:06.750Z,18.50
2017-09-25T12:41:35.047Z,17.00
2017-09-25T12:44:03.351Z,18.47
2017-09-25T12:46:31.658Z,17.07
2017-09-25T12:48:59.995Z,16.33
2017-09-25T12:51:29.064Z,16.07
2017-09-25T12:53:57.357Z,16.30
2017-09-25T12:56:25.650Z,15.93
2017-09-25T12:58:53.951Z,15.67
2017-09-25T13:01:22.372Z,16.20
2017-09-25T13:03:50.671Z,17.17
2017-09-25T13:06:18.968Z,15.17
2017-09-25T13:08:47.311Z,16.90
2017-09-25T13:11:16.378Z,16.47
2017-09-25T13:13:44.679Z,16.70
2017-09-25T13:16:12.997Z,17.17
2017-09-25T13:18:41.295Z,18.17
2017-09-25T13:21:10.359Z,17.70
2017-09-25T13:23:38.645Z,17.57
2017-09-25T13:26:06.971Z,17.30
2017-09-25T13:28:36.036Z,18.97
2017-09-25T13:31:04.335Z,16.57
2017-09-25T13:33:32.655Z,17.60
2017-09-25T13:36:00.968Z,19.00
2017-09-25T13:38:30.074Z,16.70
2017-09-25T13:40:58.378Z,17.17
2017-09-25T13:43:26.686Z,20.07
2017-09-25T13:45:55.111Z,19.77
2017-09-25T13:48:23.427Z,18.77
2017-09-25T13:50:52.571Z,18.43
2017-09-25T13:53:20.983Z,17.47
2017-09-25T13:55:49.356Z,18.97
2017-09-25T13:58:17.825Z,17.87
2017-09-25T14:03:19.890Z,17.43
2017-09-25T14:05:48.230Z,18.13
2017-09-25T14:08:16.592Z,18.10
2017-09-25T14:10:45.699Z,17.50
2017-09-25T14:13:14.802Z,18.33
2017-09-25T14:15:44.013Z,19.53
2017-09-25T14:18:13.136Z,18.17
2017-09-25T14:20:41.483Z,15.80
2017-09-25T14:23:09.825Z,16.10
2017-09-25T14:25:38.165Z,16.60
2017-09-25T14:28:06.530Z,16.93
2017-09-25T14:30:34.867Z,16.40
2017-09-25T14:33:03.240Z,17.37
2017-09-25T14:35:31.617Z,15.00
2017-09-25T14:38:00.098Z,16.20
2017-09-25T14:40:28.515Z,15.07
2017-09-25T14:42:56.906Z,14.47
2017-09-25T14:45:25.255Z,14.90
2017-09-25T14:47:53.595Z,16.00
2017-09-25T14:50:22.744Z,16.77
2017-09-25T14:52:51.076Z,15.00
2017-09-25T14:55:19.418Z,14.20
2017-09-25T14:57:47.776Z,16.13
2017-09-25T15:00:16.112Z,15.07
2017-09-25T15:02:44.448Z,15.63
2017-09-25T15:05:13.620Z,15.73
2017-09-25T15:07:41.961Z,15.83
2017-09-25T15:10:11.064Z,16.40
2017-09-25T15:12:40.183Z,18.30
2017-09-25T15:15:09.285Z,18.97
2017-09-25T15:17:37.664Z,17.70
2017-09-25T15:20:06.017Z,17.23
2017-09-25T15:22:34.343Z,16.87
2017-09-25T15:25:02.771Z,19.63
2017-09-25T15:27:31.149Z,18.23
2017-09-25T15:30:00.292Z,18.43
2017-09-25T15:32:28.669Z,19.80
2017-09-25T15:34:57.009Z,20.83
2017-09-25T15:37:25.377Z,20.83
2017-09-25T15:39:53.769Z,20.23
2017-09-25T15:42:22.100Z,19.60
2017-09-25T15:44:51.210Z,22.03
2017-09-25T15:47:20.367Z,21.40
2017-09-25T15:49:48.770Z,19.70
2017-09-25T15:52:17.498Z,20.20
2017-09-25T15:54:45.884Z,21.87
2017-09-25T15:57:15.082Z,23.40
2017-09-25T15:59:43.508Z,21.30
2017-09-25T16:02:11.904Z,21.70
2017-09-25T16:04:41.099Z,21.93
2017-09-25T16:07:10.296Z,21.10
2017-09-25T16:09:38.583Z,20.63
2017-09-25T16:12:07.795Z,20.07
2017-09-25T16:14:36.102Z,20.90
2017-09-25T16:17:04.401Z,23.97
2017-09-25T16:19:33.512Z,20.43
2017-09-25T16:22:02.571Z,21.17
2017-09-25T16:24:30.885Z,21.57
2017-09-25T16:26:59.181Z,22.10
2017-09-25T16:29:27.663Z,21.63
2017-09-25T16:31:55.952Z,22.97
2017-09-25T16:34:24.247Z,21.07
2017-09-25T16:36:52.543Z,23.47
2017-09-25T16:39:21.623Z,20.07
2017-09-25T16:41:49.963Z,21.17
2017-09-25T16:44:18.260Z,21.60
2017-09-25T16:46:46.565Z,22.43
2017-09-25T16:49:14.860Z,25.50
2017-09-25T16:51:43.798Z,22.80
2017-09-25T16:54:12.120Z,23.80
2017-09-25T16:56:41.171Z,23.77
2017-09-25T16:59:09.496Z,23.50
2017-09-25T17:01:37.803Z,26.67
2017-09-25T17:04:06.870Z,25.60
2017-09-25T17:06:35.163Z,25.60
2017-09-25T17:09:03.473Z,25.43
2017-09-25T17:11:31.799Z,24.37
2017-09-25T17:14:00.111Z,25.90
2017-09-25T17:16:28.441Z,25.27
2017-09-25T17:18:57.098Z,27.07
2017-09-25T17:21:25.760Z,25.97
2017-09-25T17:23:54.393Z,26.50
2017-09-25T17:26:23.761Z,26.17
2017-09-25T17:28:52.344Z,25.97
2017-09-25T17:31:20.642Z,26.33
2017-09-25T17:33:49.711Z,30.40
2017-09-25T17:36:18.059Z,29.20
2017-09-25T17:38:46.359Z,29.17
2017-09-25T17:41:14.655Z,27.17
2017-09-25T17:43:43.054Z,28.13
2017-09-25T17:46:11.510Z,27.63
2017-09-25T17:48:40.572Z,28.27
2017-09-25T17:51:09.051Z,26.83
2017-09-25T17:53:37.330Z,27.97
2017-09-25T17:56:05.640Z,28.03
2017-09-25T17:58:33.934Z,26.47
2017-09-25T18:01:02.369Z,30.43
2017-09-25T18:03:31.435Z,33.37
2017-09-25T18:05:59.734Z,34.97
2017-09-25T18:08:28.042Z,33.17
2017-09-25T18:10:57.099Z,35.33
2017-09-25T18:13:25.555Z,33.70
2017-09-25T18:15:54.606Z,35.33
2017-09-25T18:18:22.928Z,33.53
2017-09-25T18:20:51.995Z,30.27
2017-09-25T18:23:20.286Z,30.53
2017-09-25T18:25:48.736Z,33.30
2017-09-25T18:28:18.115Z,35.60
2017-09-25T18:30:47.182Z,32.10
2017-09-25T18:33:17.333Z,34.63
2017-09-25T18:35:46.862Z,33.53
2017-09-25T18:38:15.829Z,33.63
2017-09-25T18:40:45.238Z,35.47
2017-09-25T18:43:13.648Z,34.07
2017-09-25T18:45:42.018Z,34.53
2017-09-25T18:48:10.602Z,32.97
2017-09-25T18:50:39.847Z,33.97
2017-09-25T18:53:08.151Z,34.57
2017-09-25T18:55:36.442Z,31.70
2017-09-25T18:58:04.757Z,29.33
2017-09-25T19:00:33.186Z,27.87
2017-09-25T19:03:02.244Z,30.90
2017-09-25T19:05:30.562Z,28.90
2017-09-25T19:07:59.631Z,29.50
2017-09-25T19:10:27.927Z,26.70
2017-09-25T19:12:56.260Z,25.63
2017-09-25T19:15:25.343Z,29.20
2017-09-25T19:17:53.635Z,26.83
2017-09-25T19:20:22.706Z,27.97
2017-09-25T19:22:51.013Z,29.60
2017-09-25T19:25:19.330Z,28.67
2017-09-25T19:27:48.391Z,31.10
2017-09-25T19:30:16.721Z,28.00
2017-09-25T19:32:45.014Z,25.90
2017-09-25T19:35:14.218Z,29.10
2017-09-25T19:37:42.512Z,27.67
2017-09-25T19:40:11.585Z,28.20
2017-09-25T19:42:39.884Z,27.93
2017-09-25T19:45:08.193Z,28.37
2017-09-25T19:47:36.519Z,26.20
2017-09-25T19:50:17.526Z,28.20
2017-09-25T19:52:45.834Z,28.33
2017-09-25T19:55:14.149Z,28.37
2017-09-25T19:57:53.263Z,26.63
2017-09-25T20:00:21.554Z,28.70
2017-09-25T20:02:49.900Z,29.70
2017-09-25T20:05:18.237Z,30.20
2017-09-25T20:07:46.522Z,31.20
2017-09-25T20:10:16.734Z,33.30
2017-09-25T20:12:45.070Z,33.73
2017-09-25T20:15:29.383Z,34.77
2017-09-25T20:17:57.693Z,32.47
2017-09-25T20:20:26.001Z,33.90
2017-09-25T20:22:54.332Z,35.03
2017-09-25T20:25:23.504Z,33.73
2017-09-25T20:27:51.801Z,38.40
2017-09-25T20:30:20.094Z,38.47
2017-09-25T20:32:49.166Z,38.10
2017-09-25T20:35:17.471Z,36.20
2017-09-25T20:37:45.776Z,36.17
2017-09-25T20:40:14.203Z,33.13
2017-09-25T20:42:48.038Z,30.07
2017-09-25T20:45:16.366Z,31.73
2017-09-25T20:47:44.674Z,27.77
2017-09-25T20:50:13.767Z,30.50
2017-09-25T20:52:42.071Z,29.83
2017-09-25T20:55:11.181Z,29.73
2017-09-25T20:57:40.238Z,30.10
2017-09-25T21:00:08.545Z,29.80
2017-09-25T21:02:36.866Z,28.27
2017-09-25T21:05:05.926Z,28.87
2017-09-25T21:07:34.248Z,27.70
2017-09-25T21:10:02.603Z,28.50
2017-09-25T21:12:30.911Z,27.10
2017-09-25T21:14:59.233Z,27.97
2017-09-25T21:17:28.302Z,30.97
2017-09-25T21:19:56.589Z,29.10
2017-09-25T21:22:24.887Z,31.50
2017-09-25T21:24:53.184Z,28.77
2017-09-25T21:27:22.112Z,28.70
2017-09-25T21:29:51.189Z,27.10
2017-09-25T21:32:19.499Z,30.20
2017-09-25T21:34:47.842Z,29.27
2017-09-25T21:37:16.149Z,29.47
2017-09-25T21:39:44.438Z,27.50
2017-09-25T21:42:12.927Z,27.23
2017-09-25T21:44:41.220Z,26.20
2017-09-25T21:47:09.522Z,26.27
2017-09-25T21:49:37.843Z,25.80
2017-09-25T21:52:06.903Z,26.30
2017-09-25T21:54:35.499Z,24.33
2017-09-25T21:57:03.807Z,23.97
2017-09-25T21:59:32.119Z,23.97
2017-09-25T22:02:00.407Z,27.00
2017-09-25T22:04:29.495Z,24.30
2017-09-25T22:06:57.826Z,21.47
2017-09-25T22:09:26.326Z,23.40
2017-09-25T22:11:54.810Z,20.20
2017-09-25T22:14:23.112Z,22.40
2017-09-25T22:16:51.415Z,21.30
2017-09-25T22:19:19.697Z,20.47
2017-09-25T22:21:48.336Z,19.43
2017-09-25T22:24:16.661Z,20.07
2017-09-25T22:26:44.955Z,20.47
2017-09-25T22:29:13.289Z,20.47
2017-09-25T22:31:41.750Z,20.70
2017-09-25T22:34:10.035Z,21.57
2017-09-25T22:36:38.336Z,19.97
2017-09-25T22:39:06.674Z,19.00
2017-09-25T22:41:35.769Z,20.67
2017-09-25T22:44:13.970Z,19.80
2017-09-25T22:46:42.251Z,22.10
2017-09-25T22:49:10.732Z,24.73
2017-09-25T22:51:39.272Z,22.10
2017-09-25T22:54:07.566Z,24.27
2017-09-25T22:56:35.850Z,22.47
2017-09-25T22:59:04.143Z,23.73
2017-09-25T23:01:32.432Z,23.87
2017-09-25T23:04:16.378Z,25.90
2017-09-25T23:06:44.692Z,23.17
2017-09-25T23:12:17.485Z,23.80
2017-09-25T23:14:45.770Z,18.23
2017-09-25T23:17:14.263Z,19.30
2017-09-25T23:19:42.555Z,17.70
2017-09-25T23:22:10.839Z,20.37
2017-09-25T23:24:39.917Z,17.60
2017-09-25T23:27:08.202Z,19.77
2017-09-25T23:29:46.417Z,17.60
2017-09-25T23:32:14.703Z,20.00
2017-09-25T23:34:43.783Z,19.70
2017-09-25T23:37:12.094Z,22.70
2017-09-25T23:39:40.695Z,20.00
2017-09-25T23:42:09.102Z,20.10
2017-09-25T23:44:37.391Z,20.33
2017-09-25T23:47:05.679Z,18.27
2017-09-25T23:49:33.966Z,20.40
2017-09-25T23:52:02.268Z,22.50
2017-09-25T23:54:30.595Z,20.87
2017-09-25T23:56:58.870Z,19.97
2017-09-25T23:59:27.187Z,20.33
